Time;durP1;ratioP1;P1;durP2;ratioP2;P2;SDS_P1;SDS_P2;PMS_P1;PMS_P2;Temp;Humidity;BMP_temperature;BMP_pressure;BME280_temperature;BME280_humidity;BME280_pressure;Samples;Min_cycle;Max_cycle;Signal;HPM_P1;HPM_P2
2021/08/12 00:00:37;;;;;;;7.80;5.38;;;16.10;99.90;;;;;;5011622;28;20472;-73
2021/08/12 00:03:03;;;;;;;7.15;5.60;;;15.90;99.90;;;;;;5011448;28;20428;-72
2021/08/12 00:05:29;;;;;;;7.40;5.57;;;16.00;99.90;;;;;;5013628;28;20038;-72
2021/08/12 00:07:54;;;;;;;6.88;5.45;;;16.00;99.90;;;;;;5015027;28;20038;-72
2021/08/12 00:10:20;;;;;;;7.80;5.13;;;16.00;99.90;;;;;;5015385;28;20090;-72
2021/08/12 00:12:45;;;;;;;6.10;5.43;;;15.90;99.90;;;;;;5014829;28;20029;-72
2021/08/12 00:15:11;;;;;;;6.82;5.65;;;15.90;99.90;;;;;;4999674;28;20099;-72
2021/08/12 00:17:37;;;;;;;6.63;5.50;;;15.90;99.90;;;;;;4991265;28;20385;-72
2021/08/12 00:20:03;;;;;;;6.25;5.20;;;16.00;99.90;;;;;;4995508;28;20026;-72
2021/08/12 00:22:28;;;;;;;8.35;5.45;;;15.90;99.90;;;;;;4995000;28;20027;-72
2021/08/12 00:24:54;;;;;;;6.68;5.45;;;15.90;99.90;;;;;;4994986;28;20077;-72
2021/08/12 00:27:19;;;;;;;8.55;6.00;;;15.70;99.90;;;;;;4994939;28;20093;-72
2021/08/12 00:29:45;;;;;;;8.60;5.70;;;15.80;99.90;;;;;;4995004;28;20034;-72
2021/08/12 00:32:10;;;;;;;7.18;5.60;;;15.80;99.90;;;;;;4994937;28;20033;-72
2021/08/12 00:34:36;;;;;;;8.73;5.85;;;15.70;99.90;;;;;;4994690;28;20026;-72
2021/08/12 00:37:02;;;;;;;6.05;5.10;;;15.80;99.90;;;;;;4993629;28;20026;-72
2021/08/12 00:39:28;;;;;;;8.50;5.78;;;15.70;99.90;;;;;;4994902;28;20473;-72
2021/08/12 00:41:54;;;;;;;6.95;6.25;;;15.80;99.90;;;;;;4993420;28;20026;-72
2021/08/12 00:44:20;;;;;;;7.63;6.20;;;15.70;99.90;;;;;;4994640;28;20113;-72
2021/08/12 00:46:45;;;;;;;8.45;5.40;;;15.90;99.90;;;;;;4994517;28;20109;-72
2021/08/12 00:49:11;;;;;;;7.10;5.78;;;15.90;99.90;;;;;;4994599;28;20440;-72
2021/08/12 00:51:39;;;;;;;7.95;5.78;;;15.90;99.90;;;;;;4994528;28;20032;-72
2021/08/12 00:54:05;;;;;;;8.43;6.07;;;15.80;99.90;;;;;;4994627;28;20101;-72
2021/08/12 00:56:30;;;;;;;7.93;6.05;;;15.80;99.90;;;;;;4992959;28;20049;-72
2021/08/12 00:58:56;;;;;;;7.47;6.25;;;15.60;99.90;;;;;;4994550;28;20034;-72
2021/08/12 01:01:21;;;;;;;8.02;6.05;;;15.70;99.90;;;;;;4994419;28;20500;-72
2021/08/12 01:03:47;;;;;;;9.27;6.32;;;15.70;99.90;;;;;;4994717;28;20377;-72
2021/08/12 01:06:17;;;;;;;7.13;5.50;;;15.60;99.90;;;;;;4994053;28;20473;-72
2021/08/12 01:08:48;;;;;;;7.82;5.97;;;15.60;99.90;;;;;;4994364;28;20026;-72
2021/08/12 01:11:25;;;;;;;9.00;6.03;;;15.50;99.90;;;;;;4994035;28;20022;-73
2021/08/12 01:14:16;;;;;;;8.40;5.95;;;15.50;99.90;;;;;;4993043;28;20496;-72
2021/08/12 01:16:59;;;;;;;7.72;5.90;;;15.50;99.90;;;;;;4993600;28;20074;-73
2021/08/12 01:19:47;;;;;;;9.20;6.00;;;15.40;99.90;;;;;;4999269;28;20115;-73
2021/08/12 01:22:18;;;;;;;9.93;6.15;;;15.40;99.90;;;;;;5001386;28;20422;-73
2021/08/12 01:24:49;;;;;;;8.02;5.90;;;15.40;99.90;;;;;;4993757;28;20030;-72
2021/08/12 01:27:16;;;;;;;6.20;5.55;;;15.40;99.90;;;;;;4993947;28;20347;-73
2021/08/12 01:29:58;;;;;;;6.60;5.57;;;15.40;99.90;;;;;;4993871;28;20023;-72
2021/08/12 01:32:33;;;;;;;7.57;6.07;;;15.40;99.90;;;;;;4993866;28;20369;-72
2021/08/12 01:35:13;;;;;;;8.27;6.68;;;15.30;99.90;;;;;;4993938;28;20022;-72
2021/08/12 01:37:44;;;;;;;9.48;6.03;;;15.30;99.90;;;;;;4993856;28;20504;-72
2021/08/12 01:40:12;;;;;;;8.70;6.40;;;15.30;99.90;;;;;;4993750;28;20489;-72
2021/08/12 01:42:40;;;;;;;7.97;6.03;;;15.40;99.90;;;;;;4993480;28;20049;-73
2021/08/12 01:45:06;;;;;;;7.53;6.20;;;15.40;99.90;;;;;;4996206;28;20045;-73
2021/08/12 01:47:33;;;;;;;8.55;5.85;;;15.40;99.90;;;;;;5013077;28;20022;-72
2021/08/12 01:50:03;;;;;;;6.45;5.63;;;15.50;99.90;;;;;;5011724;28;20084;-72
2021/08/12 01:52:31;;;;;;;7.50;5.82;;;15.40;99.90;;;;;;5013099;28;20408;-72
2021/08/12 01:54:58;;;;;;;6.65;5.88;;;15.20;99.90;;;;;;5012825;28;20076;-72
2021/08/12 01:57:24;;;;;;;7.65;6.30;;;15.30;99.90;;;;;;5013104;28;20128;-72
2021/08/12 01:59:50;;;;;;;11.65;7.03;;;15.20;99.90;;;;;;5012927;28;20025;-72
2021/08/12 02:02:16;;;;;;;7.68;6.30;;;15.10;99.90;;;;;;5012809;28;20400;-72
2021/08/12 02:04:43;;;;;;;9.25;6.90;;;15.00;99.90;;;;;;5012603;28;20423;-72
2021/08/12 02:07:11;;;;;;;8.70;7.18;;;14.90;99.90;;;;;;5011516;28;20026;-72
2021/08/12 02:09:37;;;;;;;11.57;8.02;;;14.70;99.90;;;;;;5012610;28;20530;-72
2021/08/12 02:12:03;;;;;;;10.45;8.20;;;14.30;99.90;;;;;;5012752;28;20026;-73
2021/08/12 02:14:32;;;;;;;8.63;6.82;;;14.20;99.90;;;;;;4995007;28;20052;-72
2021/08/12 02:16:57;;;;;;;9.73;6.85;;;14.50;99.90;;;;;;4993038;28;20171;-73
2021/08/12 02:19:23;;;;;;;8.30;6.90;;;14.60;99.90;;;;;;4993058;28;20031;-72
2021/08/12 02:21:56;;;;;;;9.32;6.80;;;14.60;99.90;;;;;;4992854;28;20544;-72
2021/08/12 02:24:37;;;;;;;8.75;7.25;;;14.80;99.90;;;;;;4992707;28;20030;-72
2021/08/12 02:27:08;;;;;;;7.53;6.78;;;14.70;99.90;;;;;;4991987;28;20030;-72
2021/08/12 02:29:34;;;;;;;7.93;6.72;;;14.70;99.90;;;;;;4992954;28;20027;-72
2021/08/12 02:32:03;;;;;;;8.25;6.55;;;14.70;99.90;;;;;;4992717;28;20101;-72
2021/08/12 02:34:30;;;;;;;7.90;7.10;;;14.70;99.90;;;;;;5000491;28;20501;-72
2021/08/12 02:36:56;;;;;;;9.13;6.65;;;14.70;99.90;;;;;;5012495;28;20033;-72
2021/08/12 02:39:25;;;;;;;8.70;7.07;;;14.60;99.90;;;;;;5012317;28;20396;-72
2021/08/12 02:41:53;;;;;;;8.00;6.78;;;14.60;99.90;;;;;;5012210;28;20065;-72
2021/08/12 02:44:19;;;;;;;8.65;6.45;;;14.60;99.90;;;;;;5012087;28;20060;-72
2021/08/12 02:46:45;;;;;;;8.98;6.70;;;14.70;99.90;;;;;;5010724;28;20052;-72
2021/08/12 02:49:12;;;;;;;8.93;6.63;;;14.70;99.90;;;;;;5012003;28;20041;-73
2021/08/12 02:51:38;;;;;;;7.50;6.70;;;14.70;99.90;;;;;;5012071;28;20018;-72
2021/08/12 02:54:05;;;;;;;7.38;6.32;;;14.60;99.90;;;;;;5012230;28;20037;-72
2021/08/12 02:56:33;;;;;;;9.80;6.90;;;14.70;99.90;;;;;;5012242;28;20420;-72
2021/08/12 02:58:59;;;;;;;9.40;6.45;;;14.60;99.90;;;;;;5012056;28;20022;-72
2021/08/12 03:01:26;;;;;;;8.82;6.57;;;14.60;99.90;;;;;;5008278;28;20041;-72
2021/08/12 03:03:52;;;;;;;8.48;6.75;;;14.60;99.90;;;;;;4992245;28;20613;-72
2021/08/12 03:06:21;;;;;;;9.90;6.43;;;14.60;99.90;;;;;;4992062;28;20061;-71
2021/08/12 03:08:49;;;;;;;9.52;6.60;;;14.60;99.90;;;;;;4992530;28;20022;-72
2021/08/12 03:11:16;;;;;;;9.23;6.60;;;14.50;99.90;;;;;;4992346;28;20084;-72
2021/08/12 03:13:44;;;;;;;11.77;6.65;;;14.60;99.90;;;;;;4991040;28;20023;-72
2021/08/12 03:16:10;;;;;;;8.93;6.15;;;14.50;99.90;;;;;;4991951;28;20030;-72
2021/08/12 03:18:35;;;;;;;11.13;6.72;;;14.60;99.90;;;;;;4992221;28;20612;-72
2021/08/12 03:21:12;;;;;;;10.75;7.18;;;14.50;99.90;;;;;;4990841;28;20031;-72
2021/08/12 03:23:40;;;;;;;8.73;6.90;;;14.50;99.90;;;;;;4992180;28;20034;-72
2021/08/12 03:26:06;;;;;;;8.35;6.85;;;14.60;99.90;;;;;;4998766;28;20038;-72
2021/08/12 03:28:32;;;;;;;8.60;7.10;;;14.80;99.90;;;;;;5011730;28;20469;-72
2021/08/12 03:30:59;;;;;;;8.23;6.70;;;14.80;99.90;;;;;;5011551;28;20030;-72
2021/08/12 03:33:25;;;;;;;14.63;7.72;;;14.70;99.90;;;;;;5011685;28;20052;-72
2021/08/12 03:35:50;;;;;;;8.80;7.18;;;14.70;99.90;;;;;;4991979;28;20027;-72
2021/08/12 03:38:16;;;;;;;9.43;6.82;;;14.70;99.90;;;;;;4992806;28;20038;-72
2021/08/12 03:40:41;;;;;;;9.57;7.25;;;14.70;99.90;;;;;;4995953;28;20037;-73
2021/08/12 03:43:07;;;;;;;11.25;7.47;;;14.60;99.90;;;;;;4995928;28;20030;-72
2021/08/12 03:45:32;;;;;;;10.80;6.95;;;14.70;99.90;;;;;;4995551;28;20022;-73
2021/08/12 03:47:58;;;;;;;9.95;7.68;;;14.70;99.90;;;;;;4995657;28;20073;-72
2021/08/12 03:50:23;;;;;;;10.60;7.22;;;14.70;99.90;;;;;;4995727;28;20027;-72
2021/08/12 03:52:49;;;;;;;8.70;6.60;;;14.50;99.90;;;;;;4994393;28;20076;-72
2021/08/12 03:55:15;;;;;;;9.13;7.57;;;14.50;99.90;;;;;;4982610;28;20030;-72
2021/08/12 03:57:42;;;;;;;13.40;7.28;;;14.30;99.90;;;;;;4996201;28;20324;-72
2021/08/12 04:00:09;;;;;;;12.00;8.45;;;14.30;99.90;;;;;;4995461;28;20482;-72
2021/08/12 04:02:34;;;;;;;9.88;6.85;;;14.40;99.90;;;;;;4995513;28;20030;-72
2021/08/12 04:05:00;;;;;;;9.18;7.55;;;14.50;99.90;;;;;;4994207;28;20030;-72
2021/08/12 04:07:25;;;;;;;8.80;7.20;;;14.50;99.90;;;;;;5007185;28;20069;-72
2021/08/12 04:09:51;;;;;;;9.05;7.40;;;14.60;99.90;;;;;;5013807;28;20080;-72
2021/08/12 04:12:16;;;;;;;10.07;7.60;;;14.40;99.90;;;;;;5014950;28;20420;-72
2021/08/12 04:14:41;;;;;;;12.18;8.07;;;14.10;99.90;;;;;;5008118;28;20018;-72
2021/08/12 04:17:07;;;;;;;8.48;7.18;;;14.00;99.90;;;;;;5003871;28;20030;-72
2021/08/12 04:19:33;;;;;;;9.98;7.50;;;14.10;99.90;;;;;;4995258;28;20389;-73
2021/08/12 04:21:58;;;;;;;8.68;7.05;;;14.10;99.90;;;;;;4995024;28;20108;-72
2021/08/12 04:24:24;;;;;;;9.27;6.90;;;14.20;99.90;;;;;;4995015;28;20038;-72
2021/08/12 04:26:49;;;;;;;8.45;7.25;;;14.20;99.90;;;;;;4994953;28;20037;-72
2021/08/12 04:29:15;;;;;;;8.05;6.90;;;14.30;99.90;;;;;;4994910;28;20076;-72
2021/08/12 04:31:40;;;;;;;8.15;6.47;;;14.30;99.90;;;;;;4995044;28;20033;-72
2021/08/12 04:34:06;;;;;;;11.02;7.63;;;14.30;99.90;;;;;;4981861;28;20026;-72
2021/08/12 04:36:31;;;;;;;10.82;7.20;;;14.30;99.90;;;;;;4995048;28;20014;-72
2021/08/12 04:38:57;;;;;;;9.32;7.47;;;14.30;99.90;;;;;;5013444;28;20072;-72
2021/08/12 04:41:23;;;;;;;11.52;7.70;;;14.40;99.90;;;;;;5013158;28;20021;-72
2021/08/12 04:43:48;;;;;;;9.75;7.50;;;14.40;99.90;;;;;;5014225;28;20022;-72
2021/08/12 04:46:14;;;;;;;9.27;7.75;;;14.30;99.90;;;;;;5014117;28;20018;-72
2021/08/12 04:48:39;;;;;;;9.35;7.72;;;14.40;99.90;;;;;;5014136;28;20029;-72
2021/08/12 04:51:05;;;;;;;9.35;7.78;;;14.20;99.90;;;;;;5013304;28;20042;-72
2021/08/12 04:53:30;;;;;;;11.75;7.75;;;14.10;99.90;;;;;;5014265;28;20045;-72
2021/08/12 04:55:56;;;;;;;10.75;8.40;;;14.20;99.90;;;;;;5014054;28;20480;-72
2021/08/12 04:58:21;;;;;;;10.32;7.35;;;14.10;99.90;;;;;;5013785;28;20021;-72
2021/08/12 05:00:47;;;;;;;8.60;6.57;;;14.30;99.90;;;;;;5014004;28;20030;-72
2021/08/12 05:03:13;;;;;;;10.40;7.30;;;14.50;99.90;;;;;;5013985;28;20037;-72
2021/08/12 05:05:39;;;;;;;8.40;6.68;;;14.60;99.90;;;;;;5013748;28;20028;-72
2021/08/12 05:08:04;;;;;;;11.07;6.53;;;14.70;99.90;;;;;;5013789;28;20030;-72
2021/08/12 05:10:30;;;;;;;8.80;7.03;;;14.70;99.90;;;;;;5012592;28;20128;-72
2021/08/12 05:12:56;;;;;;;9.75;7.30;;;14.90;99.90;;;;;;5013627;28;20026;-73
2021/08/12 05:15:21;;;;;;;10.13;7.35;;;14.90;99.90;;;;;;5001659;28;20378;-72
2021/08/12 05:17:47;;;;;;;10.90;7.85;;;14.70;99.90;;;;;;4994109;28;20034;-72
2021/08/12 05:20:12;;;;;;;9.02;7.78;;;14.50;99.90;;;;;;4994605;28;20456;-72
2021/08/12 05:22:38;;;;;;;9.00;7.88;;;14.50;99.90;;;;;;4993841;28;20048;-72
2021/08/12 05:25:05;;;;;;;9.10;6.93;;;14.60;99.90;;;;;;4993977;28;20026;-73
2021/08/12 05:27:31;;;;;;;11.75;7.47;;;14.90;99.90;;;;;;4993788;28;20069;-72
2021/08/12 05:29:56;;;;;;;9.77;6.97;;;15.30;99.90;;;;;;4994004;28;20022;-72
2021/08/12 05:32:22;;;;;;;7.78;6.95;;;15.50;99.90;;;;;;4993782;28;20022;-72
2021/08/12 05:34:47;;;;;;;8.27;6.60;;;15.60;99.90;;;;;;4993606;28;20034;-73
2021/08/12 05:37:13;;;;;;;9.10;7.30;;;15.90;99.90;;;;;;4992455;28;20076;-73
2021/08/12 05:39:39;;;;;;;11.02;7.35;;;15.90;99.90;;;;;;4993810;28;20026;-73
2021/08/12 05:42:04;;;;;;;8.95;6.90;;;15.90;99.90;;;;;;4993940;28;20022;-73
2021/08/12 05:44:30;;;;;;;10.52;7.07;;;16.20;99.90;;;;;;4992238;28;20120;-73
2021/08/12 05:46:55;;;;;;;10.02;7.15;;;16.40;99.90;;;;;;4993557;28;20049;-73
2021/08/12 05:49:22;;;;;;;9.98;7.72;;;16.50;99.90;;;;;;4993483;28;20042;-73
2021/08/12 05:51:47;;;;;;;9.15;7.20;;;16.50;99.90;;;;;;4993500;28;20571;-72
2021/08/12 05:54:13;;;;;;;8.35;7.28;;;16.60;99.90;;;;;;4993481;28;20083;-72
2021/08/12 05:56:38;;;;;;;10.45;7.40;;;16.60;99.90;;;;;;4993054;28;20022;-73
2021/08/12 05:59:04;;;;;;;10.73;7.13;;;16.70;99.90;;;;;;4993578;28;20144;-73
2021/08/12 06:01:30;;;;;;;8.00;6.85;;;16.70;99.90;;;;;;4993213;28;20509;-72
2021/08/12 06:03:55;;;;;;;9.82;6.35;;;16.60;99.90;;;;;;4993380;28;20114;-73
2021/08/12 06:06:21;;;;;;;9.82;7.32;;;16.60;99.90;;;;;;4993012;28;20469;-73
2021/08/12 06:08:46;;;;;;;10.18;7.00;;;16.60;99.90;;;;;;4993175;28;20030;-73
2021/08/12 06:11:12;;;;;;;9.90;6.72;;;16.60;99.90;;;;;;4992939;28;20026;-73
2021/08/12 06:13:37;;;;;;;11.25;6.82;;;16.80;99.90;;;;;;4993125;28;20477;-73
2021/08/12 06:16:03;;;;;;;8.48;7.45;;;16.80;99.90;;;;;;4992734;28;20030;-73
2021/08/12 06:18:29;;;;;;;10.98;7.22;;;17.00;99.90;;;;;;4993128;28;20030;-73
2021/08/12 06:20:56;;;;;;;9.95;7.30;;;17.10;99.90;;;;;;4992851;28;20030;-73
2021/08/12 06:23:21;;;;;;;7.13;6.43;;;17.20;99.90;;;;;;4992949;28;20018;-73
2021/08/12 06:25:47;;;;;;;8.63;7.05;;;17.30;99.90;;;;;;4992588;28;20034;-74
2021/08/12 06:28:12;;;;;;;9.43;6.70;;;17.50;99.90;;;;;;4991570;28;20022;-73
2021/08/12 06:30:38;;;;;;;8.40;6.63;;;17.70;99.90;;;;;;4992821;28;20026;-73
2021/08/12 06:33:04;;;;;;;11.80;6.38;;;18.00;99.90;;;;;;4992917;28;20031;-73
2021/08/12 06:35:32;;;;;;;9.23;6.57;;;18.20;99.90;;;;;;4992558;28;20029;-73
2021/08/12 06:37:59;;;;;;;8.60;5.75;;;18.30;99.90;;;;;;4993038;28;20436;-73
2021/08/12 06:40:25;;;;;;;8.95;5.68;;;18.40;99.90;;;;;;4992320;28;20023;-73
2021/08/12 06:42:54;;;;;;;8.57;6.78;;;18.50;99.90;;;;;;4992689;28;20109;-72
2021/08/12 06:45:20;;;;;;;9.68;6.95;;;18.50;99.90;;;;;;4992421;28;20026;-73
2021/08/12 06:47:47;;;;;;;8.45;6.28;;;18.50;99.90;;;;;;4992628;28;20440;-73
2021/08/12 06:50:15;;;;;;;9.45;6.57;;;18.40;99.90;;;;;;4992374;28;20030;-72
2021/08/12 06:52:41;;;;;;;12.63;5.80;;;18.40;99.90;;;;;;4992455;28;20102;-73
2021/08/12 06:55:07;;;;;;;10.35;6.40;;;18.50;99.90;;;;;;4992055;28;20022;-73
2021/08/12 06:57:32;;;;;;;7.50;5.78;;;18.60;99.90;;;;;;4992547;28;20058;-72
2021/08/12 06:59:58;;;;;;;8.30;5.68;;;18.60;99.90;;;;;;4992153;28;20388;-73
2021/08/12 07:02:23;;;;;;;7.50;5.80;;;18.70;99.90;;;;;;4992436;28;20061;-72
2021/08/12 07:04:49;;;;;;;9.52;5.97;;;18.80;99.90;;;;;;4992050;28;20145;-72
2021/08/12 07:07:14;;;;;;;9.30;5.57;;;19.00;99.90;;;;;;4992566;28;20034;-73
2021/08/12 07:09:40;;;;;;;7.68;5.32;;;19.00;99.90;;;;;;4992245;28;20062;-74
2021/08/12 07:12:06;;;;;;;8.38;6.00;;;19.20;99.90;;;;;;4992495;28;20366;-73
2021/08/12 07:14:32;;;;;;;8.05;5.80;;;19.30;99.90;;;;;;5010508;28;20452;-73
2021/08/12 07:16:58;;;;;;;10.25;6.30;;;19.40;99.90;;;;;;4998963;28;20042;-73
2021/08/12 07:19:24;;;;;;;6.28;5.40;;;19.50;99.90;;;;;;4998742;28;20101;-73
2021/08/12 07:21:51;;;;;;;8.30;5.97;;;19.70;99.90;;;;;;4998698;28;20484;-73
2021/08/12 07:24:17;;;;;;;6.75;5.30;;;19.90;99.90;;;;;;4998392;28;20033;-74
2021/08/12 07:26:44;;;;;;;8.55;5.75;;;20.00;99.90;;;;;;4998594;28;20030;-73
2021/08/12 07:29:10;;;;;;;7.45;5.47;;;20.00;99.90;;;;;;4998685;28;20473;-73
2021/08/12 07:31:35;;;;;;;8.23;5.38;;;20.10;99.90;;;;;;4998627;28;20113;-73
2021/08/12 07:34:01;;;;;;;8.40;6.00;;;20.10;99.90;;;;;;4998671;28;20485;-73
2021/08/12 07:36:26;;;;;;;9.93;5.18;;;20.30;99.90;;;;;;4998494;28;20053;-72
2021/08/12 07:38:52;;;;;;;6.80;5.50;;;20.50;99.90;;;;;;4997249;28;20085;-73
2021/08/12 07:41:18;;;;;;;7.38;5.50;;;20.50;99.90;;;;;;4998498;28;20030;-73
2021/08/12 07:43:44;;;;;;;8.65;5.00;;;20.70;99.90;;;;;;4998756;28;20469;-73
2021/08/12 07:46:09;;;;;;;7.47;5.40;;;20.80;99.90;;;;;;4998506;28;20113;-73
2021/08/12 07:48:36;;;;;;;5.82;5.22;;;21.10;99.90;;;;;;4998683;28;20031;-73
2021/08/12 07:51:02;;;;;;;7.15;5.32;;;20.90;99.90;;;;;;4998501;28;20029;-72
2021/08/12 07:53:28;;;;;;;7.72;5.38;;;21.00;99.90;;;;;;4998317;28;20034;-73
2021/08/12 07:55:56;;;;;;;8.10;5.22;;;21.00;99.90;;;;;;4998303;28;20081;-73
2021/08/12 07:58:23;;;;;;;8.85;5.47;;;21.00;99.90;;;;;;4998497;28;20050;-73
2021/08/12 08:00:49;;;;;;;9.05;5.88;;;20.80;99.90;;;;;;4998447;28;20053;-73
2021/08/12 08:03:16;;;;;;;7.95;5.97;;;20.90;99.90;;;;;;4998352;28;20477;-73
2021/08/12 08:05:41;;;;;;;8.90;6.20;;;20.90;99.90;;;;;;5009195;28;20045;-73
2021/08/12 08:08:07;;;;;;;8.60;6.53;;;21.00;99.90;;;;;;5017730;28;20029;-73
2021/08/12 08:10:32;;;;;;;7.70;6.30;;;21.00;99.90;;;;;;5018062;28;20051;-73
2021/08/12 08:12:59;;;;;;;8.23;6.78;;;21.10;99.90;;;;;;5000485;28;20025;-73
2021/08/12 08:15:24;;;;;;;7.88;5.97;;;21.10;99.90;;;;;;5010591;28;20030;-73
2021/08/12 08:17:50;;;;;;;7.55;5.95;;;20.90;99.90;;;;;;4998913;28;20037;-73
2021/08/12 08:20:16;;;;;;;9.50;6.38;;;20.70;99.90;;;;;;4998171;28;20447;-73
2021/08/12 08:22:42;;;;;;;7.78;6.10;;;20.60;99.90;;;;;;4997790;28;20062;-73
2021/08/12 08:25:08;;;;;;;8.52;6.20;;;20.70;99.90;;;;;;4995183;28;20037;-73
2021/08/12 08:27:34;;;;;;;6.93;5.70;;;20.60;99.90;;;;;;4994780;28;20058;-73
2021/08/12 08:30:00;;;;;;;9.38;6.72;;;20.70;99.90;;;;;;4995005;28;20120;-72
2021/08/12 08:32:26;;;;;;;8.23;6.00;;;21.00;99.90;;;;;;4994723;28;20065;-73
2021/08/12 08:34:53;;;;;;;10.43;6.13;;;21.00;99.90;;;;;;4994709;28;20022;-73
2021/08/12 08:37:18;;;;;;;6.95;6.25;;;21.00;99.90;;;;;;5007885;28;20038;-73
2021/08/12 08:39:44;;;;;;;8.75;5.95;;;21.20;99.90;;;;;;4994844;28;20282;-73
2021/08/12 08:42:12;;;;;;;10.13;6.00;;;21.60;99.90;;;;;;4994572;28;20030;-73
2021/08/12 08:44:39;;;;;;;11.07;6.13;;;21.60;99.90;;;;;;4994340;28;20033;-73
2021/08/12 08:47:07;;;;;;;9.07;6.18;;;21.60;99.90;;;;;;4993257;28;20030;-73
2021/08/12 08:49:39;;;;;;;8.15;6.07;;;21.80;99.90;;;;;;4994438;28;20033;-73
2021/08/12 08:52:08;;;;;;;8.10;6.45;;;21.60;99.90;;;;;;5000718;28;20407;-73
2021/08/12 08:54:34;;;;;;;10.57;6.55;;;21.60;99.90;;;;;;5013700;28;20087;-73
2021/08/12 08:57:00;;;;;;;8.45;6.32;;;21.70;99.90;;;;;;4995064;28;20025;-73
2021/08/12 08:59:26;;;;;;;7.15;6.10;;;22.10;99.90;;;;;;4993261;28;20447;-73
2021/08/12 09:01:52;;;;;;;9.90;6.15;;;22.20;99.90;;;;;;4994378;28;20034;-73
2021/08/12 09:04:17;;;;;;;7.57;5.95;;;22.40;99.90;;;;;;4994267;28;20034;-73
2021/08/12 09:06:43;;;;;;;7.05;6.32;;;22.60;99.90;;;;;;4994281;28;20022;-73
2021/08/12 09:09:10;;;;;;;7.80;5.57;;;22.80;99.90;;;;;;4994411;28;20026;-73
2021/08/12 09:11:35;;;;;;;8.27;5.63;;;23.10;99.90;;;;;;4994609;28;20053;-73
2021/08/12 09:14:30;;;;;;;7.00;5.05;;;23.50;99.90;;;;;;4994390;28;20019;-73
2021/08/12 09:16:55;;;;;;;8.48;5.75;;;23.40;99.90;;;;;;4993273;28;20547;-73
2021/08/12 09:19:22;;;;;;;6.90;5.53;;;23.60;99.90;;;;;;4994079;28;20038;-73
2021/08/12 09:21:57;;;;;;;8.10;6.00;;;23.50;99.90;;;;;;4994031;28;20477;-73
2021/08/12 09:24:23;;;;;;;9.18;5.10;;;23.70;99.90;;;;;;5000028;28;20026;-73
2021/08/12 09:26:49;;;;;;;8.10;5.57;;;23.80;99.90;;;;;;5013644;28;20030;-73
2021/08/12 09:29:32;;;;;;;7.63;5.45;;;24.20;99.90;;;;;;5013446;28;20045;-73
2021/08/12 09:32:04;;;;;;;7.45;5.68;;;24.30;99.90;;;;;;5013345;28;20018;-73
2021/08/12 09:34:45;;;;;;;8.98;5.85;;;24.30;99.90;;;;;;5013386;28;20029;-73
2021/08/12 09:37:11;;;;;;;5.28;4.35;;;24.20;99.90;;;;;;4995332;28;20084;-73
2021/08/12 09:39:38;;;;;;;6.55;4.55;;;24.30;99.90;;;;;;4993567;28;20038;-74
2021/08/12 09:42:05;;;;;;;5.13;4.50;;;24.40;99.90;;;;;;4993641;28;20030;-73
2021/08/12 09:44:33;;;;;;;4.38;3.63;;;24.50;99.90;;;;;;4993495;28;20153;-74
2021/08/12 09:47:01;;;;;;;5.22;3.70;;;24.40;99.90;;;;;;5011883;28;20060;-73
2021/08/12 09:49:51;;;;;;;7.00;4.10;;;24.60;99.90;;;;;;5011820;28;20125;-73
2021/08/12 09:52:32;;;;;;;6.78;4.47;;;24.50;99.90;;;;;;5011736;28;20030;-73
2021/08/12 09:55:12;;;;;;;6.30;4.20;;;24.70;99.90;;;;;;5013339;28;20072;-73
2021/08/12 09:57:48;;;;;;;4.68;4.18;;;24.90;99.90;;;;;;5013018;28;20026;-73
2021/08/12 10:00:25;;;;;;;5.57;4.47;;;24.90;99.90;;;;;;5013061;28;20423;-73
2021/08/12 10:02:54;;;;;;;4.63;3.83;;;24.80;99.90;;;;;;5012950;28;20476;-73
2021/08/12 10:05:20;;;;;;;7.20;4.07;;;25.20;99.90;;;;;;5012721;28;20535;-73
2021/08/12 10:07:50;;;;;;;4.35;3.83;;;25.60;99.90;;;;;;5012918;28;20125;-73
2021/08/12 10:10:28;;;;;;;4.78;3.92;;;25.80;99.90;;;;;;5012861;28;20067;-73
2021/08/12 10:12:55;;;;;;;5.57;4.18;;;25.80;99.90;;;;;;5012676;28;20105;-74
2021/08/12 10:15:30;;;;;;;6.43;3.92;;;25.70;99.90;;;;;;5000768;28;20085;-73
2021/08/12 10:17:57;;;;;;;7.70;4.28;;;25.70;99.90;;;;;;4994950;28;20022;-73
2021/08/12 10:20:31;;;;;;;8.73;4.07;;;25.90;99.90;;;;;;4992769;28;20069;-73
2021/08/12 10:23:00;;;;;;;7.13;4.03;;;25.90;99.90;;;;;;4992997;28;20449;-73
2021/08/12 10:25:26;;;;;;;7.15;4.07;;;25.60;99.90;;;;;;4992507;28;20030;-73
2021/08/12 10:27:55;;;;;;;8.40;4.35;;;25.50;99.90;;;;;;4992792;28;20030;-73
2021/08/12 10:30:22;;;;;;;6.07;3.88;;;25.40;99.90;;;;;;4994506;28;20481;-73
2021/08/12 10:32:53;;;;;;;8.18;4.15;;;25.40;99.90;;;;;;5012355;28;20056;-74
2021/08/12 10:35:19;;;;;;;5.38;4.38;;;25.60;99.90;;;;;;5010870;28;20056;-73
2021/08/12 10:37:44;;;;;;;5.10;3.97;;;26.20;99.90;;;;;;5011289;28;20053;-73
2021/08/12 10:40:13;;;;;;;5.30;4.20;;;26.40;99.90;;;;;;5012264;28;20101;-73
2021/08/12 10:42:49;;;;;;;7.05;4.68;;;26.50;99.90;;;;;;5012219;28;20029;-73
2021/08/12 10:45:19;;;;;;;6.68;4.30;;;26.50;99.90;;;;;;5012069;28;20030;-73
2021/08/12 10:47:55;;;;;;;5.68;4.47;;;26.60;99.90;;;;;;5010206;28;20033;-73
2021/08/12 10:50:30;;;;;;;5.50;4.63;;;26.80;99.90;;;;;;5011859;28;20492;-73
2021/08/12 10:53:01;;;;;;;7.20;4.20;;;26.60;99.90;;;;;;5012146;28;20022;-73
2021/08/12 10:55:28;;;;;;;6.15;4.10;;;26.70;99.90;;;;;;5004300;28;20542;-73
2021/08/12 10:58:28;;;;;;;4.57;3.92;;;26.80;99.90;;;;;;5006837;28;20476;-73
2021/08/12 11:00:56;;;;;;;6.22;4.22;;;27.10;99.90;;;;;;5011212;28;20092;-73
2021/08/12 11:03:34;;;;;;;6.75;4.30;;;27.00;99.90;;;;;;5010730;28;20092;-73
2021/08/12 11:06:07;;;;;;;5.93;4.30;;;26.90;99.90;;;;;;5011752;28;20109;-73
2021/08/12 11:08:48;;;;;;;5.78;4.13;;;26.70;99.90;;;;;;5012011;28;20026;-73
2021/08/12 11:11:21;;;;;;;5.43;4.35;;;26.90;99.90;;;;;;5011795;28;20037;-73
2021/08/12 11:13:47;;;;;;;5.70;4.70;;;27.60;99.90;;;;;;5000440;28;20034;-73
2021/08/12 11:16:12;;;;;;;5.22;4.38;;;27.50;99.90;;;;;;4990823;28;20018;-74
2021/08/12 11:18:59;;;;;;;7.82;5.18;;;27.40;99.90;;;;;;4992820;28;20543;-73
2021/08/12 11:21:30;;;;;;;;;;;27.50;99.90;;;;;;4992782;28;20026;-74
2021/08/12 11:23:57;;;;;;;8.05;4.93;;;27.20;99.90;;;;;;4992312;28;20406;-73
2021/08/12 11:26:22;;;;;;;7.85;4.90;;;27.20;99.90;;;;;;4992352;28;20113;-73
2021/08/12 11:28:50;;;;;;;5.05;4.55;;;27.30;99.90;;;;;;4992314;28;20113;-73
2021/08/12 11:31:24;;;;;;;7.22;4.60;;;27.10;99.90;;;;;;4991586;28;20072;-73
2021/08/12 11:33:51;;;;;;;6.40;4.70;;;27.20;99.90;;;;;;4992493;28;20027;-74
2021/08/12 11:36:25;;;;;;;6.43;4.55;;;26.70;99.90;;;;;;4992437;28;20022;-73
2021/08/12 11:39:09;;;;;;;7.20;4.40;;;26.50;99.90;;;;;;4992587;28;20033;-73
2021/08/12 11:41:36;;;;;;;9.18;5.00;;;26.90;99.90;;;;;;4992412;28;20106;-73
2021/08/12 11:44:03;;;;;;;7.25;4.70;;;27.20;99.90;;;;;;4992581;28;20026;-73
2021/08/12 11:46:34;;;;;;;7.07;4.72;;;27.20;99.90;;;;;;4992210;28;20455;-73
2021/08/12 11:49:00;;;;;;;7.78;4.85;;;27.60;99.90;;;;;;4992155;28;20481;-73
2021/08/12 11:51:31;;;;;;;5.97;4.90;;;27.40;99.90;;;;;;4991119;28;20026;-73
2021/08/12 11:53:58;;;;;;;5.63;4.60;;;27.00;99.90;;;;;;4992331;28;20019;-74
2021/08/12 11:56:30;;;;;;;6.38;4.90;;;26.80;99.90;;;;;;4995035;28;20064;-73
2021/08/12 11:58:57;;;;;;;8.57;5.18;;;26.80;99.90;;;;;;5012147;28;20026;-73
2021/08/12 12:01:25;;;;;;;6.57;5.25;;;27.20;99.90;;;;;;5015437;28;20059;-74
2021/08/12 12:04:05;;;;;;;6.40;4.47;;;27.00;99.90;;;;;;5015773;28;20022;-73
2021/08/12 12:06:44;;;;;;;5.43;4.90;;;26.60;99.90;;;;;;5015683;28;20037;-73
2021/08/12 12:09:18;;;;;;;7.53;4.63;;;26.40;99.90;;;;;;5015420;28;20030;-74
2021/08/12 12:11:52;;;;;;;7.75;5.22;;;26.70;99.90;;;;;;5015533;28;20403;-73
2021/08/12 12:14:24;;;;;;;7.00;4.97;;;26.90;99.90;;;;;;5011324;28;20385;-73
2021/08/12 12:17:14;;;;;;;9.02;5.38;;;27.60;99.90;;;;;;4995643;28;20066;-73
2021/08/12 12:20:05;;;;;;;5.95;4.65;;;27.80;99.90;;;;;;5013944;28;20033;-74
2021/08/12 12:22:31;;;;;;;8.45;5.20;;;27.80;99.90;;;;;;5000426;28;20112;-73
2021/08/12 12:25:02;;;;;;;6.82;5.53;;;27.70;99.90;;;;;;4995217;28;20470;-73
2021/08/12 12:27:28;;;;;;;8.68;5.13;;;27.20;99.90;;;;;;4995183;28;20026;-74
2021/08/12 12:30:21;;;;;;;6.00;5.20;;;26.80;99.90;;;;;;4995409;28;20378;-73
2021/08/12 12:32:57;;;;;;;7.05;4.88;;;26.70;99.90;;;;;;4995427;28;20022;-73
2021/08/12 12:35:23;;;;;;;9.25;5.18;;;27.00;99.90;;;;;;4995034;28;20026;-73
2021/08/12 12:37:50;;;;;;;7.57;5.78;;;26.80;99.90;;;;;;4995306;28;20037;-73
2021/08/12 12:40:18;;;;;;;6.50;5.35;;;26.70;99.90;;;;;;4995155;28;20097;-73
2021/08/12 12:42:43;;;;;;;6.80;5.50;;;26.90;99.90;;;;;;4995372;28;20102;-73
2021/08/12 12:45:11;;;;;;;8.95;5.50;;;26.90;99.90;;;;;;4995545;28;20098;-73
2021/08/12 12:47:38;;;;;;;7.97;5.03;;;26.70;99.90;;;;;;4995031;28;20038;-74
2021/08/12 12:50:23;;;;;;;7.65;5.40;;;27.00;99.90;;;;;;4995021;28;20030;-74